Time;durP1;ratioP1;P1;durP2;ratioP2;P2;SDS_P1;SDS_P2;PMS_P1;PMS_P2;Temp;Humidity;BMP_temperature;BMP_pressure;BME280_temperature;BME280_humidity;BME280_pressure;Samples;Min_cycle;Max_cycle;Signal;HPM_P1;HPM_P2
2022/04/09 00:02:08;;;;;;;;;;;14.30;90.10;;;;;;5003875;28;19908;-86
2022/04/09 00:04:33;;;;;;;;;;;14.30;89.70;;;;;;4989797;28;19914;-87
2022/04/09 00:06:59;;;;;;;;;;;14.30;89.40;;;;;;5003681;28;19956;-88
2022/04/09 00:09:25;;;;;;;;;;;14.30;89.70;;;;;;4985439;28;19909;-87
2022/04/09 00:11:51;;;;;;;;;;;14.30;89.70;;;;;;4984438;28;19910;-88
2022/04/09 00:14:17;;;;;;;;;;;14.30;89.80;;;;;;4984384;28;19916;-86
2022/04/09 00:16:43;;;;;;;;;;;14.30;89.70;;;;;;4984515;28;19921;-88
2022/04/09 00:19:09;;;;;;;;;;;14.30;89.60;;;;;;4983720;28;20205;-87
2022/04/09 00:21:35;;;;;;;;;;;14.30;89.40;;;;;;4983502;28;20350;-88
2022/04/09 00:24:00;;;;;;;;;;;13.40;89.20;;;;;;4983305;28;20134;-88
2022/04/09 00:26:26;;;;;;;;;;;14.30;89.40;;;;;;5001175;28;19922;-86
2022/04/09 00:28:52;;;;;;;;;;;14.40;89.40;;;;;;5001750;28;19910;-87
2022/04/09 00:31:17;;;;;;;;;;;14.30;89.30;;;;;;5001926;28;20461;-87
2022/04/09 00:33:43;;;;;;;;;;;14.40;89.50;;;;;;5001690;28;20318;-86
2022/04/09 00:36:08;;;;;;;;;;;14.40;89.20;;;;;;4983518;28;20230;-89
2022/04/09 00:38:34;;;;;;;;;;;14.40;89.60;;;;;;4983735;28;19926;-85
2022/04/09 00:41:00;;;;;;;;;;;14.40;89.60;;;;;;5001104;28;19914;-88
2022/04/09 00:43:25;;;;;;;;;;;14.30;89.70;;;;;;5001098;28;19953;-87
2022/04/09 00:45:52;;;;;;;;;;;14.30;89.60;;;;;;4982921;28;19988;-86
2022/04/09 00:48:21;;;;;;;;;;;14.40;89.30;;;;;;5001336;28;19909;-88
2022/04/09 00:50:48;;;;;;;;;;;14.40;88.90;;;;;;4983426;28;19987;-86
2022/04/09 00:53:18;;;;;;;;;;;14.40;88.70;;;;;;4983472;28;19909;-87
2022/04/09 00:58:28;;;;;;;;;;;14.20;89.60;;;;;;5024065;28;19925;-87
2022/04/09 01:00:54;;;;;;;;;;;14.30;89.60;;;;;;5026354;28;19917;-86
2022/04/09 01:03:20;;;;;;;;;;;14.20;89.90;;;;;;5016426;28;20003;-86
2022/04/09 01:05:48;;;;;;;;;;;14.20;89.30;;;;;;5003875;28;19909;-86
2022/04/09 01:08:14;;;;;;;;;;;14.20;89.40;;;;;;5006272;28;19914;-87
2022/04/09 01:10:39;;;;;;;;;;;14.20;89.00;;;;;;5022022;28;19964;-86
2022/04/09 01:13:06;;;;;;;;;;;14.30;89.10;;;;;;5004065;28;19917;-83
2022/04/09 01:15:31;;;;;;;;;;;14.30;89.10;;;;;;5001612;28;20347;-85
2022/04/09 01:17:59;;;;;;;;;;;14.30;89.20;;;;;;4983682;28;20065;-90
2022/04/09 01:20:26;;;;;;;;;;;14.20;89.60;;;;;;4983741;28;20092;-85
2022/04/09 01:22:51;;;;;;;;;;;14.20;89.60;;;;;;5000530;28;20518;-86
2022/04/09 01:25:17;;;;;;;;;;;14.20;89.60;;;;;;5000644;28;19963;-87
2022/04/09 01:27:43;;;;;;;;;;;14.10;89.90;;;;;;5000291;28;20273;-87
2022/04/09 01:30:09;;;;;;;;;;;14.10;89.90;;;;;;4983063;28;20195;-87
2022/04/09 01:32:35;;;;;;;;;;;14.10;89.60;;;;;;4983110;28;20268;-88
2022/04/09 01:35:01;;;;;;;;;;;13.90;89.60;;;;;;5000762;28;19910;-87
2022/04/09 01:37:27;;;;;;;;;;;14.10;89.80;;;;;;4982802;28;20134;-84
2022/04/09 01:39:53;;;;;;;;;;;14.10;89.90;;;;;;4984153;28;19913;-84
2022/04/09 01:42:27;;;;;;;;;;;14.10;90.00;;;;;;4990512;28;19949;-82
2022/04/09 01:44:53;;;;;;;;;;;14.10;89.50;;;;;;4993237;28;20018;-86
2022/04/09 01:47:18;;;;;;;;;;;14.10;89.70;;;;;;4987397;28;20000;-87
2022/04/09 01:49:44;;;;;;;;;;;14.10;90.30;;;;;;5004685;28;20363;-87
2022/04/09 01:52:09;;;;;;;;;;;14.00;90.00;;;;;;5005094;28;19910;-88
2022/04/09 01:54:35;;;;;;;;;;;14.00;90.00;;;;;;5005357;28;20411;-91
2022/04/09 01:57:00;;;;;;;;;;;14.00;90.00;;;;;;4990569;28;19911;-88
2022/04/09 01:59:26;;;;;;;;;;;14.10;90.00;;;;;;5006064;28;20309;-89
2022/04/09 02:01:51;;;;;;;;;;;14.10;90.00;;;;;;4988707;28;20248;-87
2022/04/09 02:04:17;;;;;;;;;;;14.10;90.00;;;;;;4987458;28;19909;-89
2022/04/09 02:06:43;;;;;;;;;;;14.10;90.00;;;;;;4988330;28;19914;-89
2022/04/09 02:09:11;;;;;;;;;;;14.10;89.30;;;;;;4988521;28;20308;-88
2022/04/09 02:11:39;;;;;;;;;;;14.10;89.40;;;;;;4988921;28;19910;-88
2022/04/09 02:14:05;;;;;;;;;;;14.10;89.10;;;;;;4992109;28;19913;-86
2022/04/09 02:16:31;;;;;;;;;;;14.10;89.00;;;;;;4992458;28;20118;-89
2022/04/09 02:19:03;;;;;;;;;;;14.10;88.80;;;;;;4997114;28;19949;-85
2022/04/09 02:21:29;;;;;;;;;;;14.10;88.00;;;;;;5006958;28;20415;-89
2022/04/09 02:23:55;;;;;;;;;;;14.10;87.40;;;;;;5009044;28;19956;-88
2022/04/09 02:26:20;;;;;;;;;;;14.20;88.10;;;;;;4986832;28;20332;-89
2022/04/09 02:28:49;;;;;;;;;;;14.20;87.40;;;;;;5004908;28;20004;-90
2022/04/09 02:31:17;;;;;;;;;;;14.10;87.40;;;;;;5005052;28;20415;-86
2022/04/09 02:33:43;;;;;;;;;;;14.20;86.30;;;;;;5006715;28;19909;-83
2022/04/09 02:36:12;;;;;;;;;;;14.20;86.30;;;;;;5009751;28;19984;-83
2022/04/09 02:38:38;;;;;;;;;;;14.40;86.00;;;;;;5007172;28;19918;-87
2022/04/09 02:41:04;;;;;;;;;;;14.20;86.00;;;;;;5005178;28;19914;-86
2022/04/09 02:43:29;;;;;;;;;;;14.20;86.10;;;;;;5004200;28;19917;-88
2022/04/09 02:45:55;;;;;;;;;;;14.20;86.20;;;;;;4986675;28;20314;-87
2022/04/09 02:48:21;;;;;;;;;;;14.20;85.30;;;;;;4986013;28;19945;-88
2022/04/09 02:50:48;;;;;;;;;;;14.20;83.30;;;;;;4986361;28;19932;-86
2022/04/09 02:53:14;;;;;;;;;;;14.30;83.50;;;;;;4985326;28;19961;-86
2022/04/09 02:55:39;;;;;;;;;;;14.30;83.50;;;;;;5004000;28;19955;-87
2022/04/09 02:58:05;;;;;;;;;;;14.40;83.80;;;;;;5003603;28;19956;-86
2022/04/09 03:00:31;;;;;;;;;;;14.30;84.30;;;;;;5004683;28;20481;-90
2022/04/09 03:02:56;;;;;;;;;;;14.20;84.10;;;;;;4985741;28;20396;-88
2022/04/09 03:05:22;;;;;;;;;;;14.20;84.00;;;;;;5003659;28;19909;-87
2022/04/09 03:07:47;;;;;;;;;;;14.30;83.70;;;;;;4985925;28;20473;-87
2022/04/09 03:10:13;;;;;;;;;;;14.30;83.20;;;;;;4985815;28;19924;-88
2022/04/09 03:12:43;;;;;;;;;;;14.30;83.20;;;;;;5003849;28;19968;-86
2022/04/09 03:15:09;;;;;;;;;;;14.30;82.30;;;;;;4986038;28;19956;-89
2022/04/09 03:17:34;;;;;;;;;;;14.20;82.70;;;;;;5003567;28;19937;-88
2022/04/09 03:20:00;;;;;;;;;;;14.20;82.30;;;;;;4986368;28;19909;-85
2022/04/09 03:22:27;;;;;;;;;;;14.30;81.50;;;;;;5003208;28;19909;-87
2022/04/09 03:24:58;;;;;;;;;;;14.30;81.70;;;;;;5003205;28;19967;-86
2022/04/09 03:27:24;;;;;;;;;;;14.30;80.90;;;;;;4997917;28;19961;-89
2022/04/09 03:30:05;;;;;;;;;;;14.30;81.40;;;;;;4997585;28;19913;-85
2022/04/09 03:32:31;;;;;;;;;;;14.40;80.40;;;;;;5007715;28;19909;-86
2022/04/09 03:34:57;;;;;;;;;;;14.40;80.00;;;;;;5015062;28;19898;-82
2022/04/09 03:37:23;;;;;;;;;;;14.50;79.90;;;;;;5032180;28;19921;-84
2022/04/09 03:39:49;;;;;;;;;;;14.10;79.00;;;;;;5015539;28;19952;-84
2022/04/09 03:42:15;;;;;;;;;;;14.60;79.00;;;;;;4996512;28;19963;-84
2022/04/09 03:44:41;;;;;;;;;;;14.60;79.20;;;;;;5012774;28;19910;-86
2022/04/09 03:49:51;;;;;;;;;;;14.60;79.50;;;;;;4944297;29;19921;-89
2022/04/09 03:52:23;;;;;;;;;;;14.50;79.50;;;;;;4949902;28;19911;-82
2022/04/09 03:54:48;;;;;;;;;;;14.60;78.90;;;;;;4938618;28;19924;-88
2022/04/09 03:57:14;;;;;;;;;;;14.50;79.60;;;;;;4960469;28;20008;-87
2022/04/09 03:59:39;;;;;;;;;;;14.50;79.80;;;;;;4947247;28;20188;-84
2022/04/09 04:02:05;;;;;;;;;;;14.50;79.70;;;;;;4946275;28;19917;-88
2022/04/09 04:04:31;;;;;;;;;;;14.50;79.90;;;;;;4943750;28;20236;-88
2022/04/09 04:06:56;;;;;;;;;;;14.50;79.90;;;;;;4960318;28;20135;-87
2022/04/09 04:09:22;;;;;;;;;;;14.50;80.20;;;;;;4959914;28;20236;-88
2022/04/09 04:11:48;;;;;;;;;;;14.50;80.10;;;;;;4959665;28;20212;-87
2022/04/09 04:14:13;;;;;;;;;;;14.40;80.20;;;;;;4959770;28;19910;-87
2022/04/09 04:16:39;;;;;;;;;;;14.40;80.30;;;;;;4943864;28;19914;-85
2022/04/09 04:19:04;;;;;;;;;;;14.40;80.40;;;;;;4943816;28;19918;-88
2022/04/09 04:21:30;;;;;;;;;;;14.40;80.50;;;;;;4979085;28;20418;-85
2022/04/09 04:23:56;;;;;;;;;;;14.50;80.50;;;;;;5001364;28;20391;-87
2022/04/09 04:26:21;;;;;;;;;;;14.50;80.60;;;;;;4984386;28;19944;-89
2022/04/09 04:28:48;;;;;;;;;;;14.40;80.80;;;;;;5002037;28;19932;-88
2022/04/09 04:31:15;;;;;;;;;;;14.30;81.20;;;;;;5014657;28;20506;-87
2022/04/09 04:33:40;;;;;;;;;;;14.30;81.30;;;;;;5025832;28;19973;-87
2022/04/09 04:36:06;;;;;;;;;;;14.40;81.50;;;;;;5023786;28;19909;-88
2022/04/09 04:38:32;;;;;;;;;;;14.30;82.10;;;;;;5009189;28;19924;-88
2022/04/09 04:40:57;;;;;;;;;;;14.30;81.70;;;;;;5000059;28;19910;-88
2022/04/09 04:43:23;;;;;;;;;;;14.30;81.70;;;;;;5002218;28;19914;-89
2022/04/09 04:45:48;;;;;;;;;;;14.30;81.70;;;;;;5002997;28;19916;-86
2022/04/09 04:48:16;;;;;;;;;;;14.30;82.00;;;;;;5001951;28;19952;-88
2022/04/09 04:50:42;;;;;;;;;;;14.30;82.10;;;;;;5000016;28;20470;-86
2022/04/09 04:53:08;;;;;;;;;;;14.30;82.10;;;;;;4986171;28;20001;-87
2022/04/09 04:55:35;;;;;;;;;;;14.30;82.40;;;;;;5004303;28;20243;-85
2022/04/09 04:58:01;;;;;;;;;;;14.30;82.60;;;;;;5005001;28;20450;-87
2022/04/09 05:00:26;;;;;;;;;;;14.30;82.60;;;;;;5013736;28;19989;-87
2022/04/09 05:02:52;;;;;;;;;;;14.30;82.80;;;;;;5008887;28;20088;-87
2022/04/09 05:05:18;;;;;;;;;;;14.30;83.10;;;;;;5008309;28;19909;-87
2022/04/09 05:07:45;;;;;;;;;;;14.30;83.10;;;;;;5004773;28;19910;-87
2022/04/09 05:10:15;;;;;;;;;;;14.30;83.20;;;;;;5017378;28;20047;-86
2022/04/09 05:12:41;;;;;;;;;;;14.40;83.10;;;;;;4998169;28;19933;-89
2022/04/09 05:15:07;;;;;;;;;;;14.30;83.40;;;;;;5004588;28;20403;-83
2022/04/09 05:17:33;;;;;;;;;;;14.30;83.30;;;;;;5004526;28;19996;-85
2022/04/09 05:20:02;;;;;;;;;;;14.30;83.90;;;;;;4983431;28;20462;-86
2022/04/09 05:22:28;;;;;;;;;;;14.40;83.60;;;;;;4982983;28;19916;-87
2022/04/09 05:24:54;;;;;;;;;;;14.40;84.20;;;;;;4983333;28;19913;-87
2022/04/09 05:27:20;;;;;;;;;;;14.40;83.90;;;;;;4983076;28;19926;-85
2022/04/09 05:29:46;;;;;;;;;;;14.40;84.00;;;;;;5000797;28;20407;-87
2022/04/09 05:32:11;;;;;;;;;;;14.40;84.70;;;;;;4984024;28;20569;-87
2022/04/09 05:34:37;;;;;;;;;;;14.30;84.10;;;;;;4982832;28;19910;-86
2022/04/09 05:37:02;;;;;;;;;;;14.40;84.10;;;;;;4983262;28;20611;-87
2022/04/09 05:39:28;;;;;;;;;;;14.40;83.90;;;;;;4983540;28;19910;-88
2022/04/09 05:41:53;;;;;;;;;;;14.40;84.30;;;;;;4983200;28;20348;-86
2022/04/09 05:44:19;;;;;;;;;;;14.30;83.80;;;;;;4982562;28;19917;-88
2022/04/09 05:46:45;;;;;;;;;;;14.40;83.70;;;;;;4982959;28;19909;-85
2022/04/09 05:49:10;;;;;;;;;;;14.50;83.30;;;;;;5000658;28;20028;-88
2022/04/09 05:51:36;;;;;;;;;;;14.40;83.40;;;;;;4983115;28;20332;-87
2022/04/09 05:54:02;;;;;;;;;;;14.50;83.60;;;;;;4982526;28;19909;-86
2022/04/09 05:56:28;;;;;;;;;;;14.50;83.50;;;;;;5000630;28;20524;-88
2022/04/09 05:58:54;;;;;;;;;;;14.40;83.50;;;;;;4982718;28;19922;-88
2022/04/09 06:01:19;;;;;;;;;;;14.50;83.40;;;;;;5000323;28;20356;-87
2022/04/09 06:03:45;;;;;;;;;;;14.50;83.40;;;;;;4983041;28;19910;-87
2022/04/09 06:06:11;;;;;;;;;;;14.50;82.90;;;;;;4982829;28;20211;-88
2022/04/09 06:08:37;;;;;;;;;;;14.50;82.90;;;;;;4983193;28;19917;-85
2022/04/09 06:11:02;;;;;;;;;;;14.60;82.40;;;;;;4982190;28;19909;-87
2022/04/09 06:13:28;;;;;;;;;;;14.50;82.80;;;;;;4982843;28;19997;-86
2022/04/09 06:15:54;;;;;;;;;;;14.60;82.80;;;;;;4982958;28;20217;-86
2022/04/09 06:18:19;;;;;;;;;;;14.60;82.60;;;;;;4983138;28;19934;-86
2022/04/09 06:20:45;;;;;;;;;;;14.70;82.50;;;;;;4983256;28;19917;-84
2022/04/09 06:23:13;;;;;;;;;;;14.70;82.30;;;;;;5001184;28;19917;-86
2022/04/09 06:25:38;;;;;;;;;;;16.40;82.90;;;;;;4983936;28;20026;-84
2022/04/09 06:28:04;;;;;;;;;;;14.70;81.30;;;;;;4995295;28;20403;-86
2022/04/09 06:30:30;;;;;;;;;;;14.80;81.30;;;;;;5009682;28;19920;-87
2022/04/09 06:32:56;;;;;;;;;;;14.90;81.60;;;;;;5025977;28;19968;-86
2022/04/09 06:35:22;;;;;;;;;;;14.90;80.70;;;;;;5010562;28;19916;-85
2022/04/09 06:37:47;;;;;;;;;;;14.80;80.00;;;;;;5022217;28;20194;-90
2022/04/09 06:40:16;;;;;;;;;;;14.90;80.40;;;;;;4989367;28;20026;-84
2022/04/09 06:42:42;;;;;;;;;;;14.90;80.20;;;;;;4986528;28;20312;-87
2022/04/09 06:45:08;;;;;;;;;;;15.00;79.50;;;;;;5005014;28;19917;-86
2022/04/09 06:47:40;;;;;;;;;;;15.00;79.40;;;;;;4986066;28;20012;-88
2022/04/09 06:50:09;;;;;;;;;;;15.00;79.40;;;;;;4986215;28;19921;-86
2022/04/09 06:52:36;;;;;;;;;;;15.10;78.60;;;;;;4986032;28;19910;-86
2022/04/09 06:55:02;;;;;;;;;;;15.20;77.60;;;;;;4986262;28;19910;-87
2022/04/09 06:57:28;;;;;;;;;;;15.20;77.30;;;;;;4985401;28;19913;-83
2022/04/09 06:59:57;;;;;;;;;;;15.10;77.30;;;;;;4985998;28;19917;-86
2022/04/09 07:02:23;;;;;;;;;;;15.00;77.70;;;;;;5003558;28;19910;-86
2022/04/09 07:04:49;;;;;;;;;;;14.90;77.80;;;;;;5004265;28;19996;-88
2022/04/09 07:07:27;;;;;;;;;;;15.00;78.30;;;;;;4986067;28;20369;-89
2022/04/09 07:09:54;;;;;;;;;;;14.90;77.80;;;;;;5003603;28;19949;-88
2022/04/09 07:12:20;;;;;;;;;;;16.50;78.70;;;;;;5004540;28;19909;-87
2022/04/09 07:14:46;;;;;;;;;;;15.00;77.70;;;;;;4985835;28;19909;-84
2022/04/09 07:17:11;;;;;;;;;;;15.20;77.60;;;;;;4985954;28;19976;-89
2022/04/09 07:19:38;;;;;;;;;;;15.50;76.40;;;;;;4995009;28;19921;-85
2022/04/09 07:22:04;;;;;;;;;;;15.60;75.70;;;;;;5008965;28;19964;-86
2022/04/09 07:24:31;;;;;;;;;;;15.90;74.10;;;;;;5003588;28;19965;-88
2022/04/09 07:26:56;;;;;;;;;;;16.00;73.40;;;;;;4985173;28;19925;-85
2022/04/09 07:29:25;;;;;;;;;;;16.10;72.50;;;;;;5002801;28;19917;-86
2022/04/09 07:31:50;;;;;;;;;;;16.20;72.20;;;;;;4984835;28;19920;-84
2022/04/09 07:34:16;;;;;;;;;;;16.30;70.90;;;;;;4985050;28;20342;-85
2022/04/09 07:36:41;;;;;;;;;;;16.30;70.70;;;;;;4985466;28;20291;-84
2022/04/09 07:39:07;;;;;;;;;;;16.50;70.40;;;;;;5001649;28;20387;-85
2022/04/09 07:41:33;;;;;;;;;;;16.60;68.80;;;;;;4984352;28;19913;-83
2022/04/09 07:43:58;;;;;;;;;;;16.70;68.90;;;;;;4985572;28;19944;-86
2022/04/09 07:46:24;;;;;;;;;;;16.80;68.00;;;;;;4986485;28;19920;-89
2022/04/09 07:48:49;;;;;;;;;;;16.70;67.10;;;;;;4985824;28;19924;-90
2022/04/09 07:51:15;;;;;;;;;;;16.60;67.40;;;;;;4994735;28;19937;-87
2022/04/09 07:53:41;;;;;;;;;;;16.70;67.30;;;;;;5006761;28;20073;-89
2022/04/09 07:56:06;;;;;;;;;;;16.80;66.80;;;;;;5009275;28;19998;-88
2022/04/09 07:58:32;;;;;;;;;;;16.80;66.60;;;;;;5022949;28;19918;-86
2022/04/09 08:00:57;;;;;;;;;;;16.60;66.10;;;;;;4997392;28;19909;-88
2022/04/09 08:03:23;;;;;;;;;;;16.50;66.70;;;;;;4993528;28;20221;-85
2022/04/09 08:05:48;;;;;;;;;;;16.40;67.40;;;;;;5011265;28;19914;-88
2022/04/09 08:08:14;;;;;;;;;;;16.30;67.50;;;;;;4995562;28;19918;-87
2022/04/09 08:10:40;;;;;;;;;;;16.20;67.70;;;;;;4996403;28;19916;-87
2022/04/09 08:13:05;;;;;;;;;;;16.20;68.10;;;;;;4989693;28;20591;-88
2022/04/09 08:15:31;;;;;;;;;;;16.20;68.00;;;;;;4985940;28;20407;-85
2022/04/09 08:17:57;;;;;;;;;;;15.90;68.10;;;;;;5002873;28;19913;-86
2022/04/09 08:20:23;;;;;;;;;;;15.80;68.50;;;;;;4984765;28;20633;-83
2022/04/09 08:22:49;;;;;;;;;;;15.80;69.70;;;;;;4984207;28;19917;-86
2022/04/09 08:25:15;;;;;;;;;;;15.70;69.60;;;;;;5001159;28;19913;-83
2022/04/09 08:27:42;;;;;;;;;;;17.20;69.80;;;;;;5000609;28;19928;-85
2022/04/09 08:30:11;;;;;;;;;;;15.70;69.20;;;;;;5000718;28;19959;-81
2022/04/09 08:32:37;;;;;;;;;;;15.80;68.90;;;;;;5000695;28;20056;-78
2022/04/09 08:35:03;;;;;;;;;;;15.80;69.10;;;;;;5000290;28;20000;-79
2022/04/09 08:37:32;;;;;;;;;;;15.80;68.40;;;;;;5000128;28;19982;-82
2022/04/09 08:39:59;;;;;;;;;;;18.00;69.70;;;;;;4983217;28;20040;-82
2022/04/09 08:42:25;;;;;;;;;;;15.90;67.80;;;;;;4999796;28;20154;-80
2022/04/09 08:44:51;;;;;;;;;;;15.90;68.00;;;;;;4983639;28;19910;-81
2022/04/09 08:47:17;;;;;;;;;;;16.00;67.80;;;;;;4999774;28;19924;-82
2022/04/09 08:49:46;;;;;;;;;;;16.10;67.70;;;;;;5000482;28;20258;-87
2022/04/09 08:52:12;;;;;;;;;;;16.20;66.90;;;;;;5000149;28;19916;-81
2022/04/09 08:54:38;;;;;;;;;;;16.20;67.00;;;;;;5000079;28;19910;-82
2022/04/09 08:57:04;;;;;;;;;;;16.30;66.90;;;;;;5000143;28;19916;-85
2022/04/09 08:59:29;;;;;;;;;;;13.40;64.80;;;;;;5000066;28;20153;-82
2022/04/09 09:01:55;;;;;;;;;;;16.30;66.90;;;;;;5000237;28;19941;-79
2022/04/09 09:04:21;;;;;;;;;;;16.30;66.30;;;;;;4999107;28;19917;-84
2022/04/09 09:06:46;;;;;;;;;;;16.30;67.30;;;;;;4999703;28;19917;-80
2022/04/09 09:09:29;;;;;;;;;;;16.30;66.90;;;;;;5000027;28;19913;-80
2022/04/09 09:11:56;;;;;;;;;;;16.30;66.60;;;;;;4982515;28;20511;-79
2022/04/09 09:14:44;;;;;;;;;;;16.10;66.90;;;;;;4999876;28;20569;-79
2022/04/09 09:17:09;;;;;;;;;;;16.00;67.60;;;;;;4999617;28;19976;-83
2022/04/09 09:19:42;;;;;;;;;;;15.80;67.90;;;;;;5000200;28;20018;-80
2022/04/09 09:22:08;;;;;;;;;;;15.80;68.00;;;;;;4999761;28;20565;-79
2022/04/09 09:24:33;;;;;;;;;;;15.80;68.10;;;;;;4999289;28;19916;-80
2022/04/09 09:27:00;;;;;;;;;;;15.80;69.20;;;;;;4999077;28;19921;-80
2022/04/09 09:29:27;;;;;;;;;;;15.70;69.20;;;;;;4999434;28;19910;-80
2022/04/09 09:31:53;;;;;;;;;;;15.60;69.50;;;;;;4999629;28;19910;-82
2022/04/09 09:34:19;;;;;;;;;;;15.60;69.20;;;;;;4999637;28;20056;-82
2022/04/09 09:36:45;;;;;;;;;;;15.50;69.30;;;;;;4999898;28;20407;-81
2022/04/09 09:39:11;;;;;;;;;;;15.60;69.20;;;;;;5001004;28;19984;-83
2022/04/09 09:41:49;;;;;;;;;;;15.60;69.60;;;;;;4999583;28;19916;-79
2022/04/09 09:44:16;;;;;;;;;;;15.50;69.00;;;;;;4989405;28;19990;-80
2022/04/09 09:46:43;;;;;;;;;;;15.70;69.50;;;;;;5017048;28;19925;-79
2022/04/09 09:49:08;;;;;;;;;;;15.70;69.20;;;;;;5014126;28;19945;-79
2022/04/09 09:51:34;;;;;;;;;;;15.60;69.40;;;;;;5014962;28;20024;-79
2022/04/09 09:54:04;;;;;;;;;;;15.70;68.50;;;;;;5008032;28;19910;-80
2022/04/09 09:56:36;;;;;;;;;;;15.80;69.20;;;;;;4988624;28;19910;-81
2022/04/09 09:59:05;;;;;;;;;;;15.90;68.00;;;;;;5003769;28;19918;-79
2022/04/09 10:01:31;;;;;;;;;;;16.00;68.00;;;;;;5006306;28;20388;-80
2022/04/09 10:03:57;;;;;;;;;;;16.10;67.50;;;;;;5005627;28;19988;-79
2022/04/09 10:06:22;;;;;;;;;;;16.20;67.30;;;;;;5004787;28;20545;-81
2022/04/09 10:08:48;;;;;;;;;;;17.90;68.50;;;;;;4985608;28;20530;-80
2022/04/09 10:11:20;;;;;;;;;;;16.20;66.90;;;;;;5003236;28;19909;-81
2022/04/09 10:13:47;;;;;;;;;;;16.20;66.60;;;;;;5002541;28;19914;-79
2022/04/09 10:16:18;;;;;;;;;;;16.30;66.70;;;;;;4984363;28;19920;-79
2022/04/09 10:18:47;;;;;;;;;;;16.40;65.30;;;;;;5001740;28;19917;-82
2022/04/09 10:21:13;;;;;;;;;;;13.40;63.50;;;;;;5002048;28;19924;-79
2022/04/09 10:23:40;;;;;;;;;;;16.50;63.80;;;;;;5002008;28;20157;-80
2022/04/09 10:26:06;;;;;;;;;;;16.70;63.00;;;;;;4984035;28;19921;-79
2022/04/09 10:28:32;;;;;;;;;;;16.70;63.60;;;;;;5002072;28;19980;-79
2022/04/09 10:30:58;;;;;;;;;;;16.80;63.40;;;;;;5001918;28;20562;-79
2022/04/09 10:33:26;;;;;;;;;;;17.00;62.80;;;;;;5002876;28;20492;-78
2022/04/09 10:35:52;;;;;;;;;;;17.20;61.40;;;;;;5002038;28;19921;-80
2022/04/09 10:38:19;;;;;;;;;;;17.40;60.80;;;;;;4984093;28;19913;-80
2022/04/09 10:40:44;;;;;;;;;;;17.60;60.30;;;;;;4984481;28;19920;-80
2022/04/09 10:43:31;;;;;;;;;;;17.60;60.10;;;;;;5001788;28;19909;-81
2022/04/09 10:46:11;;;;;;;;;;;17.40;60.00;;;;;;5002154;28;19920;-81
2022/04/09 10:48:38;;;;;;;;;;;17.30;60.60;;;;;;4986010;28;20541;-85
2022/04/09 10:51:04;;;;;;;;;;;17.20;60.50;;;;;;5002462;28;20119;-83
2022/04/09 10:53:31;;;;;;;;;;;17.10;61.00;;;;;;4985025;28;19917;-85
2022/04/09 10:56:09;;;;;;;;;;;17.00;61.60;;;;;;5002804;28;19953;-84
2022/04/09 10:58:57;;;;;;;;;;;15.70;61.00;;;;;;4984458;28;19926;-86
2022/04/09 11:01:42;;;;;;;;;;;16.80;62.50;;;;;;4984558;28;19937;-86
2022/04/09 11:04:26;;;;;;;;;;;16.60;63.10;;;;;;4984240;28;19910;-86
2022/04/09 11:07:03;;;;;;;;;;;16.40;63.80;;;;;;5001866;28;20161;-85
2022/04/09 11:10:02;;;;;;;;;;;16.50;63.90;;;;;;4984461;28;19910;-88
2022/04/09 11:12:29;;;;;;;;;;;16.60;63.50;;;;;;4904985;29;19911;-87
2022/04/09 11:14:58;;;;;;;;;;;16.40;64.00;;;;;;4906244;29;19986;-86
2022/04/09 11:17:26;;;;;;;;;;;15.60;63.80;;;;;;4921819;29;19979;-87
2022/04/09 11:19:53;;;;;;;;;;;16.30;65.10;;;;;;4922233;29;19979;-86
2022/04/09 11:22:18;;;;;;;;;;;16.40;64.90;;;;;;4905787;29;20086;-87
2022/04/09 11:24:44;;;;;;;;;;;16.20;65.00;;;;;;4922351;29;20440;-83
2022/04/09 11:27:12;;;;;;;;;;;16.30;65.30;;;;;;4905402;29;20666;-85
2022/04/09 11:29:40;;;;;;;;;;;16.10;65.80;;;;;;4905483;29;19942;-86
2022/04/09 11:32:05;;;;;;;;;;;16.00;65.70;;;;;;4905295;29;19919;-83
2022/04/09 11:34:47;;;;;;;;;;;16.10;65.40;;;;;;4921512;29;19918;-83
2022/04/09 11:37:13;;;;;;;;;;;16.00;65.80;;;;;;4921490;29;20441;-85
2022/04/09 11:39:45;;;;;;;;;;;15.90;65.40;;;;;;4905185;29;19923;-86
2022/04/09 11:42:11;;;;;;;;;;;16.00;65.80;;;;;;4922083;29;20422;-81
2022/04/09 11:44:40;;;;;;;;;;;16.10;65.50;;;;;;4905995;29;19911;-85
2022/04/09 11:47:09;;;;;;;;;;;16.10;65.70;;;;;;4910267;28;20691;-85
2022/04/09 11:49:34;;;;;;;;;;;16.10;65.30;;;;;;5019082;28;19913;-85
2022/04/09 11:52:00;;;;;;;;;;;16.10;65.00;;;;;;5021384;28;19935;-86
2022/04/09 11:54:29;;;;;;;;;;;16.20;65.20;;;;;;5003397;28;19905;-86
2022/04/09 11:56:55;;;;;;;;;;;16.20;65.10;;;;;;5006940;28;19992;-87
2022/04/09 11:59:21;;;;;;;;;;;16.30;64.40;;;;;;5014044;28;20163;-86
2022/04/09 12:01:46;;;;;;;;;;;16.30;64.00;;;;;;5024798;28;19909;-84
2022/04/09 12:04:13;;;;;;;;;;;16.20;64.10;;;;;;5008949;28;20000;-87
2022/04/09 12:06:39;;;;;;;;;;;16.20;63.30;;;;;;5006262;28;20351;-84
2022/04/09 12:09:05;;;;;;;;;;;17.20;64.80;;;;;;5004241;28;19920;-86
2022/04/09 12:11:30;;;;;;;;;;;16.10;63.90;;;;;;5004091;28;19909;-86
2022/04/09 12:14:07;;;;;;;;;;;16.10;64.90;;;;;;5021751;28;20182;-89
2022/04/09 12:16:36;;;;;;;;;;;16.10;64.30;;;;;;5020124;28;20169;-84
2022/04/09 12:19:06;;;;;;;;;;;16.10;65.10;;;;;;5020501;28;19921;-86
2022/04/09 12:21:32;;;;;;;;;;;16.10;64.90;;;;;;5003759;28;19915;-84
2022/04/09 12:24:00;;;;;;;;;;;16.10;65.60;;;;;;5020736;28;20003;-86
2022/04/09 12:26:26;;;;;;;;;;;16.10;65.80;;;;;;5003443;28;19979;-85
2022/04/09 12:29:07;;;;;;;;;;;16.10;65.90;;;;;;5021727;28;20519;-85
2022/04/09 12:31:33;;;;;;;;;;;16.10;65.50;;;;;;5004628;28;19913;-86
2022/04/09 12:33:59;;;;;;;;;;;15.90;66.20;;;;;;5021712;28;19911;-86
2022/04/09 12:36:25;;;;;;;;;;;16.00;65.60;;;;;;5003636;28;20583;-83
2022/04/09 12:38:51;;;;;;;;;;;16.00;66.50;;;;;;5003694;28;19928;-84
2022/04/09 12:41:16;;;;;;;;;;;16.00;66.60;;;;;;5021453;28;19975;-85
2022/04/09 12:43:43;;;;;;;;;;;16.00;66.60;;;;;;5020889;28;19909;-85
2022/04/09 12:46:11;;;;;;;;;;;15.90;66.90;;;;;;5003286;28;19932;-87
2022/04/09 12:48:42;;;;;;;;;;;15.90;66.80;;;;;;5024675;28;19909;-87
2022/04/09 12:51:09;;;;;;;;;;;15.80;67.10;;;;;;5027056;28;19924;-84
2022/04/09 12:53:34;;;;;;;;;;;15.50;67.10;;;;;;5026657;28;19905;-85
2022/04/09 12:56:03;;;;;;;;;;;15.80;68.00;;;;;;5023722;28;20008;-84
2022/04/09 12:58:29;;;;;;;;;;;15.80;67.30;;;;;;5025355;28;19917;-86
2022/04/09 13:00:54;;;;;;;;;;;15.70;68.00;;;;;;5025485;28;19913;-84
2022/04/09 13:03:20;;;;;;;;;;;15.60;68.00;;;;;;5020278;28;19905;-83
2022/04/09 13:05:46;;;;;;;;;;;15.60;68.50;;;;;;5029460;28;19956;-81
2022/04/09 13:08:11;;;;;;;;;;;15.60;69.00;;;;;;5046418;28;19909;-89
2022/04/09 13:10:37;;;;;;;;;;;15.50;69.10;;;;;;5042174;28;19909;-85
2022/04/09 13:13:04;;;;;;;;;;;15.50;69.90;;;;;;5041223;28;19940;-84
2022/04/09 13:15:31;;;;;;;;;;;15.50;70.20;;;;;;5015030;28;19905;-83
2022/04/09 13:17:57;;;;;;;;;;;15.40;70.70;;;;;;5037904;28;19917;-86
2022/04/09 13:20:22;;;;;;;;;;;15.50;71.10;;;;;;5041589;28;19949;-85
2022/04/09 13:22:48;;;;;;;;;;;15.50;70.80;;;;;;5020340;28;20405;-87
2022/04/09 13:25:17;;;;;;;;;;;15.50;71.60;;;;;;5013134;28;19933;-85
2022/04/09 13:27:44;;;;;;;;;;;15.50;71.10;;;;;;5028753;28;19952;-85
2022/04/09 13:30:13;;;;;;;;;;;18.20;72.90;;;;;;5004779;28;20102;-87
2022/04/09 13:32:38;;;;;;;;;;;15.50;70.70;;;;;;5004484;28;19916;-87
2022/04/09 13:35:04;;;;;;;;;;;15.50;70.50;;;;;;5003856;28;20000;-88
2022/04/09 13:37:30;;;;;;;;;;;15.40;70.30;;;;;;5021308;28;19905;-87
2022/04/09 13:39:56;;;;;;;;;;;16.00;71.40;;;;;;5013773;28;20503;-86
2022/04/09 13:42:21;;;;;;;;;;;15.40;71.70;;;;;;5004576;28;19910;-87
2022/04/09 13:44:47;;;;;;;;;;;15.20;72.60;;;;;;5006787;28;19909;-87
2022/04/09 13:47:13;;;;;;;;;;;12.50;71.20;;;;;;5007595;28;19909;-88
2022/04/09 13:49:39;;;;;;;;;;;15.20;73.80;;;;;;5007441;28;19956;-85
2022/04/09 13:52:05;;;;;;;;;;;15.20;74.00;;;;;;5008340;28;20492;-87
2022/04/09 13:54:31;;;;;;;;;;;14.40;74.20;;;;;;5024742;28;19909;-86
2022/04/09 13:56:56;;;;;;;;;;;15.00;74.60;;;;;;5004770;28;19909;-86
2022/04/09 13:59:22;;;;;;;;;;;15.00;76.50;;;;;;5021394;28;19917;-88
2022/04/09 14:01:48;;;;;;;;;;;14.80;78.90;;;;;;5003446;28;20063;-87
2022/04/09 14:04:13;;;;;;;;;;;13.40;78.60;;;;;;5002986;28;19909;-87
2022/04/09 14:06:39;;;;;;;;;;;14.50;81.50;;;;;;5020802;28;19909;-87
2022/04/09 14:09:05;;;;;;;;;;;12.10;81.50;;;;;;5002937;28;20079;-88
2022/04/09 14:11:30;;;;;;;;;;;14.30;84.10;;;;;;5002393;28;19909;-87
2022/04/09 14:13:57;;;;;;;;;;;14.20;84.70;;;;;;5020178;28;19920;-87
2022/04/09 14:16:22;;;;;;;;;;;14.10;85.80;;;;;;5019673;28;19964;-88
2022/04/09 14:18:48;;;;;;;;;;;13.90;86.10;;;;;;5008147;28;19917;-87
2022/04/09 14:21:14;;;;;;;;;;;13.90;86.90;;;;;;5006778;28;19924;-85